Time;durP1;ratioP1;P1;durP2;ratioP2;P2;SDS_P1;SDS_P2;PMS_P1;PMS_P2;Temp;Humidity;BMP_temperature;BMP_pressure;BME280_temperature;BME280_humidity;BME280_pressure;Samples;Min_cycle;Max_cycle;Signal;HPM_P1;HPM_P2
2024/01/05 05:22:33;;;;;;;3.95;2.80;;;;;;;4.34;100.00;98904.59;5089432;28;20746;-33
2024/01/05 05:24:59;;;;;;;4.57;2.40;;;;;;;4.56;100.00;98881.16;5089331;28;20036;-34
2024/01/05 05:27:24;;;;;;;4.97;2.58;;;;;;;4.53;100.00;98890.22;5089060;28;20036;-34
2024/01/05 05:29:49;;;;;;;4.30;2.70;;;;;;;4.52;100.00;98879.84;5089305;28;20115;-33
2024/01/05 05:32:15;;;;;;;4.82;2.60;;;;;;;4.60;100.00;98891.19;5089323;28;20047;-38
2024/01/05 05:34:41;;;;;;;4.80;2.25;;;;;;;4.67;100.00;98891.34;5089563;28;20039;-37
2024/01/05 05:37:07;;;;;;;4.88;2.40;;;;;;;4.74;100.00;98889.69;5089137;28;20127;-38
2024/01/05 05:39:32;;;;;;;5.50;2.65;;;;;;;4.77;100.00;98896.47;5089238;28;20131;-37
2024/01/05 05:41:58;;;;;;;4.68;2.70;;;;;;;4.89;100.00;98890.66;5089152;28;20039;-37
2024/01/05 05:44:23;;;;;;;4.28;2.70;;;;;;;4.91;100.00;98887.84;5089382;28;20459;-39
2024/01/05 05:46:48;;;;;;;4.05;2.47;;;;;;;4.92;100.00;98896.56;5088758;28;20403;-38
2024/01/05 05:49:14;;;;;;;5.80;2.92;;;;;;;4.90;100.00;98902.03;5089004;28;20040;-36
2024/01/05 05:51:39;;;;;;;7.45;2.33;;;;;;;4.96;100.00;98906.63;5087814;28;20032;-38
2024/01/05 05:54:05;;;;;;;4.93;2.63;;;;;;;4.97;100.00;98910.91;5088974;28;20040;-38
2024/01/05 05:56:30;;;;;;;5.72;2.88;;;;;;;5.03;100.00;98919.97;5088783;28;20040;-36
2024/01/05 05:58:55;;;;;;;5.88;2.38;;;;;;;5.12;100.00;98913.66;5089167;28;20051;-38
2024/01/05 06:01:23;;;;;;;5.07;2.72;;;;;;;4.94;100.00;98918.31;5088764;28;20048;-38
2024/01/05 06:03:48;;;;;;;5.95;2.05;;;;;;;4.88;100.00;98917.19;5088858;28;20174;-36
2024/01/05 06:06:19;;;;;;;4.78;2.30;;;;;;;4.72;100.00;98922.50;5088532;28;20123;-38
2024/01/05 06:08:45;;;;;;;3.85;2.35;;;;;;;4.67;100.00;98927.47;5088862;28;20044;-37
2024/01/05 06:11:12;;;;;;;3.10;1.95;;;;;;;4.84;100.00;98934.38;5088733;28;20032;-38
2024/01/05 06:13:37;;;;;;;5.28;2.40;;;;;;;4.86;100.00;98932.38;5088619;28;20122;-39
2024/01/05 06:16:03;;;;;;;3.50;2.00;;;;;;;4.74;100.00;98931.91;5088283;28;20044;-38
2024/01/05 06:18:29;;;;;;;4.07;2.00;;;;;;;4.96;100.00;98940.13;5088656;28;20507;-37
2024/01/05 06:20:54;;;;;;;3.38;2.28;;;;;;;4.96;100.00;98933.03;5088270;28;20036;-38
2024/01/05 06:23:19;;;;;;;3.63;2.35;;;;;;;4.98;100.00;98935.47;5088446;28;20052;-38
2024/01/05 06:25:45;;;;;;;2.25;1.73;;;;;;;5.06;100.00;98932.81;5088316;28;20492;-37
2024/01/05 06:28:10;;;;;;;2.42;1.65;;;;;;;5.05;100.00;98932.00;5088202;28;20178;-37
2024/01/05 06:30:35;;;;;;;3.60;1.92;;;;;;;4.98;100.00;98931.03;5088511;28;20032;-38
2024/01/05 06:33:01;;;;;;;2.65;2.05;;;;;;;5.05;100.00;98925.91;5079967;28;20047;-37
2024/01/05 06:35:26;;;;;;;4.43;1.77;;;;;;;5.00;100.00;98926.38;5074678;28;20042;-38
2024/01/05 06:37:52;;;;;;;3.72;2.05;;;;;;;5.17;100.00;98928.00;5074631;28;20089;-38
2024/01/05 06:40:17;;;;;;;2.42;1.73;;;;;;;5.24;100.00;98935.25;5074676;28;20086;-38
2024/01/05 06:42:43;;;;;;;4.20;2.28;;;;;;;5.27;100.00;98940.16;5074761;28;20040;-38
2024/01/05 06:45:09;;;;;;;3.03;1.90;;;;;;;5.37;100.00;98944.25;5074338;28;20495;-37
2024/01/05 06:47:34;;;;;;;3.67;1.92;;;;;;;5.32;100.00;98945.75;5074285;28;20046;-38
2024/01/05 06:50:00;;;;;;;3.05;1.75;;;;;;;5.38;100.00;98953.00;5074483;28;20072;-38
2024/01/05 06:52:25;;;;;;;2.97;1.70;;;;;;;5.44;100.00;98950.50;5074330;28;20037;-38
2024/01/05 06:54:51;;;;;;;3.03;1.70;;;;;;;5.80;100.00;98946.50;5074365;28;20045;-40
2024/01/05 06:57:16;;;;;;;7.00;3.92;;;;;;;12.45;100.00;98939.59;5073866;28;20127;-37
2024/01/05 06:59:41;;;;;;;6.88;2.85;;;;;;;13.53;100.00;98949.94;5072498;28;20079;-35
2024/01/05 07:02:07;;;;;;;2.97;1.90;;;;;;;15.74;92.03;98958.63;5074405;28;20032;-45
2024/01/05 07:04:32;;;;;;;2.92;1.60;;;;;;;15.51;83.03;98956.75;5074139;28;20044;-34
2024/01/05 07:06:57;;;;;;;1.77;1.40;;;;;;;15.01;87.92;98946.56;5073549;28;20043;-35
2024/01/05 07:09:23;;;;;;;4.30;1.58;;;;;;;9.17;84.19;98950.84;5074020;28;20075;-37
2024/01/05 07:11:48;;;;;;;2.83;1.13;;;;;;;7.28;100.00;98953.03;5073936;28;20041;-37
2024/01/05 07:14:13;;;;;;;5.10;1.38;;;;;;;6.85;100.00;98957.34;5073913;28;20082;-36
2024/01/05 07:16:39;;;;;;;2.90;1.33;;;;;;;6.66;100.00;98954.19;5071456;28;20187;-38
2024/01/05 07:19:04;;;;;;;2.15;1.52;;;;;;;6.50;100.00;98957.78;5073286;28;20059;-37
2024/01/05 07:21:30;;;;;;;3.08;1.70;;;;;;;6.18;100.00;98956.22;5073517;28;20041;-36
2024/01/05 07:23:55;;;;;;;3.10;1.60;;;;;;;6.35;100.00;98956.09;5073583;28;20047;-37
2024/01/05 07:26:21;;;;;;;3.65;1.70;;;;;;;6.19;100.00;98955.25;5073096;28;20036;-37
2024/01/05 07:28:47;;;;;;;5.63;2.13;;;;;;;6.20;100.00;98953.41;5073333;28;20067;-37
2024/01/05 07:31:12;;;;;;;6.20;2.20;;;;;;;6.25;100.00;98938.63;5072439;28;20064;-37
2024/01/05 07:33:39;;;;;;;2.60;1.65;;;;;;;6.24;100.00;98934.34;5073310;28;20119;-36
2024/01/05 07:36:05;;;;;;;6.68;1.90;;;;;;;6.32;100.00;98935.28;5073122;28;20032;-37
2024/01/05 07:38:33;;;;;;;3.30;1.70;;;;;;;6.20;100.00;98930.44;5073369;28;20396;-35
2024/01/05 07:40:58;;;;;;;2.15;1.58;;;;;;;6.48;100.00;98935.16;5073275;28;20044;-35
2024/01/05 07:43:24;;;;;;;2.72;1.60;;;;;;;6.39;100.00;98936.22;5073132;28;20040;-39
2024/01/05 07:45:49;;;;;;;2.95;1.77;;;;;;;6.57;100.00;98936.72;5072399;28;20044;-36
2024/01/05 07:48:15;;;;;;;2.55;1.50;;;;;;;6.68;100.00;98917.78;5073160;28;20152;-37
2024/01/05 07:50:40;;;;;;;3.53;1.42;;;;;;;6.79;100.00;98917.34;5073115;28;20404;-34
2024/01/05 07:53:06;;;;;;;9.93;2.10;;;;;;;6.86;100.00;98911.31;5073196;28;20047;-35
2024/01/05 07:55:31;;;;;;;4.10;1.25;;;;;;;6.94;100.00;98924.47;5073124;28;20106;-39
2024/01/05 07:57:56;;;;;;;2.10;1.50;;;;;;;6.90;100.00;98910.75;5072758;28;20127;-38
2024/01/05 08:00:22;;;;;;;5.22;1.70;;;;;;;6.80;100.00;98905.75;5072990;28;20036;-37
2024/01/05 08:02:49;;;;;;;3.05;1.90;;;;;;;6.83;100.00;98914.31;5074235;28;20040;-38
2024/01/05 08:05:14;;;;;;;2.80;1.33;;;;;;;6.71;100.00;98913.94;5072978;28;20032;-38
2024/01/05 08:07:41;;;;;;;4.22;1.83;;;;;;;6.87;100.00;98921.72;5072574;28;20082;-39
2024/01/05 08:10:07;;;;;;;2.65;1.55;;;;;;;6.69;100.00;98931.81;5072886;28;20044;-39
2024/01/05 08:12:32;;;;;;;3.17;1.80;;;;;;;6.61;100.00;98926.63;5072543;28;20035;-39
2024/01/05 08:14:58;;;;;;;4.90;2.00;;;;;;;6.29;100.00;98923.25;5072665;28;20400;-38
2024/01/05 08:17:23;;;;;;;2.83;1.55;;;;;;;6.21;100.00;98929.44;5072364;28;20048;-38
2024/01/05 08:19:48;;;;;;;3.97;1.63;;;;;;;6.35;100.00;98924.38;5072666;28;20041;-37
2024/01/05 08:22:14;;;;;;;3.05;1.80;;;;;;;6.38;100.00;98926.63;5072306;28;20044;-38
2024/01/05 08:24:39;;;;;;;2.53;1.60;;;;;;;6.49;100.00;98931.50;5072430;28;20123;-38
2024/01/05 08:27:05;;;;;;;3.10;1.65;;;;;;;6.49;100.00;98928.88;5072232;28;20040;-38
2024/01/05 08:29:30;;;;;;;4.53;1.98;;;;;;;6.75;100.00;98918.69;5072449;28;20448;-38
2024/01/05 08:31:58;;;;;;;5.43;1.48;;;;;;;6.77;100.00;98911.38;5072458;28;20037;-38
2024/01/05 08:34:23;;;;;;;;;;;;;;;6.84;100.00;98918.59;5072595;28;20076;-36
2024/01/05 08:36:49;;;;;;;3.63;1.52;;;;;;;6.88;100.00;98920.72;5071792;28;19947;-38
2024/01/05 08:39:15;;;;;;;4.97;1.88;;;;;;;6.90;100.00;98928.47;5072123;28;20044;-38
2024/01/05 08:41:42;;;;;;;4.72;1.38;;;;;;;6.93;100.00;98922.81;5072112;28;20055;-38
2024/01/05 08:44:07;;;;;;;4.05;1.45;;;;;;;6.73;100.00;98917.25;5072301;28;20486;-38
2024/01/05 08:46:33;;;;;;;3.58;1.95;;;;;;;6.96;100.00;98923.28;5071611;28;20224;-36
2024/01/05 08:48:58;;;;;;;4.68;1.70;;;;;;;6.93;100.00;98926.28;5072406;28;20043;-38
2024/01/05 08:51:24;;;;;;;2.95;1.58;;;;;;;7.01;100.00;98920.91;5072270;28;20028;-38
2024/01/05 08:53:49;;;;;;;3.38;1.95;;;;;;;6.88;100.00;98922.53;5072232;28;20503;-38
2024/01/05 08:56:14;;;;;;;4.65;1.98;;;;;;;7.10;100.00;98926.91;5071573;28;20050;-38
2024/01/05 08:58:41;;;;;;;3.65;1.85;;;;;;;7.22;100.00;98927.28;5072225;28;20135;-38
2024/01/05 09:01:06;;;;;;;4.88;1.88;;;;;;;7.35;100.00;98938.88;5071988;28;20119;-37
2024/01/05 09:03:32;;;;;;;3.75;1.70;;;;;;;7.43;100.00;98934.47;5072005;28;20476;-38
2024/01/05 09:05:57;;;;;;;4.07;1.77;;;;;;;7.31;100.00;98934.16;5071700;28;20040;-38
2024/01/05 09:08:23;;;;;;;4.78;1.52;;;;;;;7.25;100.00;98932.25;5071893;28;20443;-38
2024/01/05 09:10:49;;;;;;;4.88;2.17;;;;;;;7.37;100.00;98933.41;5072043;28;20036;-39
2024/01/05 09:13:14;;;;;;;4.28;2.05;;;;;;;7.44;100.00;98941.44;5072019;28;20128;-38
2024/01/05 09:15:39;;;;;;;3.22;2.20;;;;;;;7.59;100.00;98924.50;5071775;28;20043;-38
2024/01/05 09:18:05;;;;;;;5.38;2.47;;;;;;;7.76;100.00;98933.06;5071371;28;20095;-38
2024/01/05 09:20:31;;;;;;;4.43;2.00;;;;;;;7.85;100.00;98933.78;5071610;28;20514;-39
2024/01/05 09:22:56;;;;;;;4.47;2.88;;;;;;;7.95;100.00;98931.63;5071908;28;20101;-36
2024/01/05 09:25:22;;;;;;;4.15;2.33;;;;;;;7.96;100.00;98935.94;5071639;28;20067;-38
2024/01/05 09:27:47;;;;;;;3.92;2.00;;;;;;;7.85;100.00;98944.38;5071493;28;20055;-39
2024/01/05 09:30:13;;;;;;;2.25;1.70;;;;;;;8.07;100.00;98946.03;5071733;28;20530;-40
2024/01/05 09:32:38;;;;;;;1.83;1.38;;;;;;;7.95;100.00;98949.38;5071866;28;20091;-36
2024/01/05 09:35:05;;;;;;;3.15;1.63;;;;;;;8.25;100.00;98953.56;5071683;28;20048;-39
2024/01/05 09:37:30;;;;;;;3.08;1.92;;;;;;;8.25;100.00;98956.22;5071228;28;20094;-38
2024/01/05 09:39:55;;;;;;;4.68;1.92;;;;;;;8.29;100.00;98965.44;5071658;28;20453;-39
2024/01/05 09:42:22;;;;;;;4.32;1.75;;;;;;;8.34;100.00;98962.19;5071579;28;20083;-37
2024/01/05 09:44:48;;;;;;;2.67;1.58;;;;;;;8.49;100.00;98970.16;5071711;28;20395;-37
2024/01/05 09:47:18;;;;;;;2.30;1.70;;;;;;;8.38;100.00;98971.47;5071394;28;20504;-38
2024/01/05 09:49:44;;;;;;;3.42;1.30;;;;;;;8.53;100.00;98974.03;5071737;28;20063;-38
2024/01/05 09:52:13;;;;;;;1.48;1.08;;;;;;;8.56;99.64;98976.34;5071659;28;20108;-38
2024/01/05 09:54:38;;;;;;;2.72;1.58;;;;;;;8.72;98.28;98977.88;5070664;28;20039;-39
2024/01/05 09:57:05;;;;;;;2.47;1.60;;;;;;;8.65;99.07;98976.00;5074327;28;20044;-35
2024/01/05 09:59:32;;;;;;;3.00;1.67;;;;;;;8.60;100.00;98980.22;5071665;28;20048;-42
2024/01/05 10:02:02;;;;;;;1.73;1.10;;;;;;;8.62;100.00;98980.88;5071596;28;20045;-38
2024/01/05 10:04:28;;;;;;;5.47;1.98;;;;;;;8.72;100.00;98983.19;5071422;28;20048;-38
2024/01/05 10:07:03;;;;;;;3.60;1.60;;;;;;;8.82;100.00;98981.88;5070067;28;20510;-38
2024/01/05 10:09:30;;;;;;;4.13;1.27;;;;;;;8.97;99.66;98985.25;5075308;28;20040;-38
2024/01/05 10:11:57;;;;;;;3.95;1.63;;;;;;;9.08;98.25;98981.25;5075261;28;20411;-38
2024/01/05 10:14:26;;;;;;;2.65;1.60;;;;;;;9.20;98.60;98979.69;5074848;28;20522;-38
2024/01/05 10:17:06;;;;;;;3.08;1.27;;;;;;;9.22;97.30;98980.31;5074814;28;20044;-38
2024/01/05 10:19:32;;;;;;;4.32;1.40;;;;;;;9.45;98.09;98974.72;5074869;28;20062;-37
2024/01/05 10:22:10;;;;;;;4.82;1.38;;;;;;;9.92;90.88;98975.72;5074899;28;20036;-37
2024/01/05 10:24:36;;;;;;;2.05;1.30;;;;;;;10.47;87.10;98970.34;5074905;28;20131;-37
2024/01/05 10:27:07;;;;;;;3.53;1.52;;;;;;;10.93;89.25;98977.53;5074770;28;20495;-38
2024/01/05 10:29:34;;;;;;;2.72;1.25;;;;;;;10.93;83.22;98978.34;5074802;28;20040;-40
2024/01/05 10:32:12;;;;;;;2.63;1.10;;;;;;;10.62;84.54;98970.16;5074709;28;20178;-38
2024/01/05 10:34:40;;;;;;;2.95;1.63;;;;;;;10.29;84.87;98976.25;5074711;28;20341;-39
2024/01/05 10:37:06;;;;;;;4.45;1.23;;;;;;;10.15;87.62;98974.56;5074379;28;20067;-39
2024/01/05 10:39:32;;;;;;;2.25;1.50;;;;;;;10.06;89.21;98974.75;5074598;28;20043;-37
2024/01/05 10:42:20;;;;;;;2.80;1.45;;;;;;;10.19;87.53;98962.50;5074663;28;20496;-37
2024/01/05 10:44:46;;;;;;;1.63;1.38;;;;;;;10.24;88.46;98958.25;5074551;28;20048;-35
2024/01/05 10:47:14;;;;;;;2.85;1.50;;;;;;;10.50;87.26;98952.13;5073997;28;20418;-37
2024/01/05 10:49:49;;;;;;;1.88;1.10;;;;;;;10.44;87.63;98955.63;5074629;28;20404;-36
2024/01/05 10:52:19;;;;;;;3.65;1.30;;;;;;;10.55;86.77;98944.34;5074533;28;20166;-37
2024/01/05 10:54:46;;;;;;;4.13;1.60;;;;;;;10.70;90.47;98948.66;5074477;28;20043;-36
2024/01/05 10:57:13;;;;;;;2.22;1.52;;;;;;;10.64;88.21;98944.16;5073993;28;20127;-36
2024/01/05 10:59:39;;;;;;;2.00;1.73;;;;;;;10.48;88.35;98940.84;5074312;28;20040;-36
2024/01/05 11:02:14;;;;;;;2.20;1.40;;;;;;;10.51;87.95;98940.47;5070727;28;20033;-37
2024/01/05 11:04:44;;;;;;;3.53;1.40;;;;;;;10.32;86.31;98944.75;5054972;28;20148;-35
2024/01/05 11:07:15;;;;;;;3.90;1.75;;;;;;;10.12;88.70;98935.06;5053821;28;20404;-36
2024/01/05 11:10:06;;;;;;;1.20;1.10;;;;;;;10.24;89.93;98936.97;5054165;28;20040;-35
2024/01/05 11:12:55;;;;;;;3.22;1.50;;;;;;;10.39;88.72;98942.09;5054025;28;20029;-36
2024/01/05 11:15:38;;;;;;;3.28;1.45;;;;;;;10.28;87.69;98940.03;5054198;28;20075;-38
2024/01/05 11:18:24;;;;;;;2.55;1.45;;;;;;;10.49;88.21;98923.03;5063691;28;20025;-36
2024/01/05 11:21:05;;;;;;;3.30;1.23;;;;;;;10.50;88.20;98925.50;5061340;28;20048;-35
2024/01/05 11:23:33;;;;;;;2.67;1.25;;;;;;;10.35;87.84;98916.88;5063782;28;20036;-36
2024/01/05 11:25:58;;;;;;;2.45;1.50;;;;;;;10.59;86.50;98921.59;5062226;28;20044;-39
2024/01/05 11:28:34;;;;;;;4.22;1.48;;;;;;;10.62;86.86;98924.88;5064036;28;20028;-36
2024/01/05 11:31:00;;;;;;;3.75;1.30;;;;;;;10.57;87.20;98918.34;5064367;28;20071;-38
2024/01/05 11:33:48;;;;;;;1.88;1.20;;;;;;;10.57;87.06;98915.69;5062925;28;20573;-38
2024/01/05 11:36:48;;;;;;;2.53;1.17;;;;;;;10.49;90.26;98915.88;5063559;28;20029;-36
2024/01/05 11:39:49;;;;;;;1.52;1.40;;;;;;;10.51;87.18;98910.34;5063825;28;20025;-38
2024/01/05 11:42:24;;;;;;;2.83;1.20;;;;;;;10.52;87.29;98902.16;5063866;28;20519;-36
2024/01/05 11:44:50;;;;;;;1.75;1.13;;;;;;;10.21;90.01;98904.56;5063200;28;20033;-37
2024/01/05 11:47:41;;;;;;;2.78;1.20;;;;;;;10.44;89.26;98907.69;5057944;28;20710;-38
2024/01/05 11:50:26;;;;;;;2.13;1.50;;;;;;;10.49;89.35;98912.38;5058730;28;20498;-36
2024/01/05 11:53:12;;;;;;;6.25;1.25;;;;;;;10.62;87.98;98922.22;5053295;28;20044;-38
2024/01/05 11:55:45;;;;;;;2.93;1.27;;;;;;;10.36;88.44;98909.72;5053364;28;20052;-38
2024/01/05 11:58:16;;;;;;;1.58;1.17;;;;;;;10.26;89.27;98907.47;5052966;28;20025;-38
2024/01/05 12:00:43;;;;;;;2.33;1.15;;;;;;;10.31;90.03;98915.66;5053191;28;20029;-37
2024/01/05 12:03:08;;;;;;;2.63;1.15;;;;;;;10.36;89.26;98915.84;5053117;28;20554;-38
2024/01/05 12:05:34;;;;;;;2.72;1.23;;;;;;;10.38;90.17;98911.16;5052876;28;20072;-38
2024/01/05 12:08:00;;;;;;;2.25;1.35;;;;;;;10.22;89.72;98911.53;5052551;28;20558;-39
2024/01/05 12:10:28;;;;;;;2.40;1.00;;;;;;;10.39;89.38;98920.78;5053099;28;20064;-36
2024/01/05 12:12:55;;;;;;;1.40;1.02;;;;;;;10.25;89.46;98911.97;5052923;28;20044;-38
2024/01/05 12:15:21;;;;;;;3.30;1.05;;;;;;;10.29;88.40;98909.72;5052620;28;20041;-35
2024/01/05 12:17:47;;;;;;;3.15;1.23;;;;;;;10.05;89.86;98905.78;5052500;28;20044;-36
2024/01/05 12:20:13;;;;;;;1.70;0.98;;;;;;;10.12;89.33;98911.13;5052674;28;20166;-36
2024/01/05 12:22:40;;;;;;;2.40;1.25;;;;;;;10.28;90.05;98910.75;5052725;28;20408;-37
2024/01/05 12:25:05;;;;;;;2.17;1.10;;;;;;;10.23;90.07;98907.88;5052410;28;20040;-37
2024/01/05 12:27:38;;;;;;;3.15;1.10;;;;;;;10.16;90.23;98899.84;5052020;28;20040;-38
2024/01/05 12:30:05;;;;;;;2.30;1.05;;;;;;;10.24;89.02;98896.22;5052076;28;20039;-37
2024/01/05 12:32:33;;;;;;;;;;;;;;;10.21;88.49;98888.59;5052855;28;20031;-37
2024/01/05 12:35:03;;;;;;;2.55;1.13;;;;;;;10.20;90.10;98878.97;5051227;28;19916;-35
2024/01/05 12:37:29;;;;;;;3.45;1.30;;;;;;;10.27;88.67;98882.50;5052332;28;20060;-37
2024/01/05 12:39:54;;;;;;;2.08;1.17;;;;;;;10.49;88.67;98883.91;5055292;28;20040;-37
2024/01/05 12:42:20;;;;;;;4.40;1.30;;;;;;;10.41;88.76;98872.66;5055106;28;20045;-37
2024/01/05 12:44:46;;;;;;;2.25;1.23;;;;;;;10.46;88.41;98870.22;5060745;28;20033;-37
2024/01/05 12:47:11;;;;;;;2.40;1.48;;;;;;;10.53;89.17;98871.84;5061623;28;20032;-36
2024/01/05 12:49:37;;;;;;;1.98;1.45;;;;;;;10.78;86.55;98868.53;5062200;28;20086;-35
2024/01/05 12:52:07;;;;;;;3.03;1.17;;;;;;;10.51;87.35;98870.41;5060774;28;20032;-36
2024/01/05 12:54:40;;;;;;;3.72;1.30;;;;;;;10.74;86.81;98867.31;5061834;28;20041;-36
2024/01/05 12:57:08;;;;;;;2.15;1.17;;;;;;;10.60;88.59;98859.34;5062473;28;20488;-36
2024/01/05 12:59:35;;;;;;;3.97;1.20;;;;;;;10.41;86.75;98865.50;5061635;28;20033;-36
2024/01/05 13:02:03;;;;;;;2.85;1.35;;;;;;;10.73;86.92;98866.50;5043174;28;20652;-36
2024/01/05 13:04:36;;;;;;;2.05;1.30;;;;;;;10.68;85.12;98865.47;5062377;28;20479;-37
2024/01/05 13:07:03;;;;;;;2.10;1.00;;;;;;;10.41;85.87;98862.84;5062189;28;20500;-37
2024/01/05 13:09:30;;;;;;;1.80;1.05;;;;;;;10.42;85.86;98869.78;5065761;28;20120;-38
2024/01/05 13:11:56;;;;;;;2.47;1.17;;;;;;;10.49;84.08;98869.78;5061488;28;20043;-39
2024/01/05 13:14:21;;;;;;;1.55;0.77;;;;;;;10.43;83.63;98866.13;5059801;28;20037;-36
2024/01/05 13:16:47;;;;;;;1.95;0.95;;;;;;;10.54;84.33;98867.34;5051432;28;20511;-36
2024/01/05 13:19:16;;;;;;;3.72;1.17;;;;;;;10.67;83.19;98869.16;5051751;28;20040;-36
2024/01/05 13:21:42;;;;;;;1.90;1.27;;;;;;;10.57;81.46;98866.94;5051521;28;20114;-36
2024/01/05 13:24:07;;;;;;;1.95;1.02;;;;;;;10.26;84.49;98865.72;5050618;28;20449;-36
2024/01/05 13:26:33;;;;;;;1.88;1.20;;;;;;;10.63;82.54;98865.25;5051318;28;20123;-36
2024/01/05 13:28:59;;;;;;;1.73;1.08;;;;;;;10.51;83.07;98863.25;5055003;28;20059;-36
2024/01/05 13:31:24;;;;;;;2.15;1.20;;;;;;;10.54;83.18;98854.84;5051624;28;20638;-36
2024/01/05 13:33:49;;;;;;;1.50;1.02;;;;;;;10.57;80.94;98859.75;5051347;28;20041;-35
2024/01/05 13:36:15;;;;;;;2.65;1.00;;;;;;;10.34;82.40;98862.03;5051335;28;20102;-36
2024/01/05 13:38:40;;;;;;;1.83;1.40;;;;;;;10.55;81.70;98864.47;5051659;28;20152;-36
2024/01/05 13:41:06;;;;;;;2.72;1.10;;;;;;;10.58;80.50;98873.91;5051640;28;20041;-36
2024/01/05 13:43:32;;;;;;;1.90;1.00;;;;;;;10.65;82.73;98879.22;5054116;28;20124;-36
2024/01/05 13:45:58;;;;;;;2.75;0.93;;;;;;;10.55;81.87;98882.28;5055262;28;20040;-36
2024/01/05 13:48:25;;;;;;;2.22;1.40;;;;;;;10.59;82.81;98880.84;5054361;28;20037;-35
2024/01/05 13:50:51;;;;;;;2.72;1.30;;;;;;;10.47;85.04;98880.66;5055837;28;20473;-38
2024/01/05 13:53:16;;;;;;;2.50;0.98;;;;;;;10.28;85.94;98878.81;5055507;28;20071;-35
2024/01/05 13:55:42;;;;;;;1.73;1.20;;;;;;;10.34;86.62;98883.31;5055600;28;20036;-36
2024/01/05 13:58:07;;;;;;;2.60;1.00;;;;;;;10.22;86.16;98884.91;5053960;28;20502;-35
2024/01/05 14:00:33;;;;;;;1.10;1.00;;;;;;;10.25;86.83;98889.88;5054492;28;20037;-34
2024/01/05 14:02:58;;;;;;;2.53;1.10;;;;;;;10.10;87.82;98887.34;5055523;28;20075;-35
2024/01/05 14:05:23;;;;;;;2.83;1.30;;;;;;;10.06;88.15;98894.94;5055242;28;20055;-36
2024/01/05 14:07:49;;;;;;;2.67;1.25;;;;;;;10.21;86.54;98885.94;5055114;28;20032;-36
2024/01/05 14:10:15;;;;;;;4.10;1.30;;;;;;;10.16;87.39;98894.53;5055461;28;20508;-36
2024/01/05 14:12:42;;;;;;;2.00;1.30;;;;;;;10.12;87.31;98898.63;5055366;28;20044;-38
2024/01/05 14:15:09;;;;;;;2.78;1.65;;;;;;;10.11;88.06;98898.84;5055392;28;20056;-37
2024/01/05 14:17:38;;;;;;;3.03;1.30;;;;;;;9.99;89.04;98890.63;5055164;28;20048;-36
2024/01/05 14:20:04;;;;;;;2.80;1.30;;;;;;;9.94;90.29;98904.53;5055295;28;20061;-36
2024/01/05 14:22:32;;;;;;;3.67;1.35;;;;;;;9.87;90.22;98902.88;5054961;28;20562;-35
2024/01/05 14:24:57;;;;;;;;;;;;;;;10.00;90.67;98905.56;5054125;28;20499;-35
2024/01/05 14:27:23;;;;;;;3.05;1.30;;;;;;;9.98;90.04;98904.97;5054684;28;19921;-36
2024/01/05 14:29:48;;;;;;;3.80;1.63;;;;;;;9.76;90.40;98906.94;5053716;28;20561;-36
2024/01/05 14:32:15;;;;;;;1.75;1.20;;;;;;;9.81;91.18;98909.00;5054934;28;20033;-37
2024/01/05 14:34:42;;;;;;;4.40;1.58;;;;;;;9.81;90.74;98904.50;5064396;28;20416;-36
2024/01/05 14:37:07;;;;;;;4.07;1.45;;;;;;;9.77;91.51;98903.25;5063300;28;20123;-37
2024/01/05 14:39:33;;;;;;;4.70;1.45;;;;;;;9.72;92.44;98911.84;5065164;28;20112;-35
2024/01/05 14:41:58;;;;;;;2.15;1.35;;;;;;;9.81;91.62;98912.47;5063784;28;20040;-37
2024/01/05 14:44:23;;;;;;;3.40;1.75;;;;;;;9.72;92.29;98917.16;5066076;28;20406;-36
2024/01/05 14:46:49;;;;;;;3.53;1.40;;;;;;;9.77;91.40;98913.88;5074228;28;20040;-37
2024/01/05 14:49:14;;;;;;;4.90;1.95;;;;;;;9.77;91.84;98916.53;5073346;28;20067;-38
2024/01/05 14:51:40;;;;;;;3.03;2.10;;;;;;;9.76;91.96;98906.94;5074388;28;20031;-37
2024/01/05 14:54:05;;;;;;;2.40;1.42;;;;;;;9.67;92.50;98913.47;5074045;28;20454;-38
2024/01/05 14:56:30;;;;;;;3.67;1.92;;;;;;;9.61;93.52;98919.56;5074402;28;20480;-36
2024/01/05 14:58:56;;;;;;;5.03;1.58;;;;;;;9.64;93.61;98913.84;5074575;28;20046;-37
2024/01/05 15:01:21;;;;;;;3.10;1.67;;;;;;;9.48;93.55;98918.50;5075212;28;20036;-36
2024/01/05 15:03:47;;;;;;;3.60;1.63;;;;;;;9.51;92.94;98923.41;5078043;28;20422;-37
2024/01/05 15:06:12;;;;;;;2.95;1.30;;;;;;;9.63;92.69;98914.88;5074438;28;20500;-37
2024/01/05 15:08:38;;;;;;;2.40;1.70;;;;;;;9.50;92.76;98920.94;5074209;28;20040;-38
2024/01/05 15:11:04;;;;;;;3.88;1.80;;;;;;;9.58;92.68;98919.94;5074176;28;20089;-37
2024/01/05 15:13:30;;;;;;;2.97;1.85;;;;;;;9.55;92.66;98920.34;5074239;28;20101;-37
2024/01/05 15:15:58;;;;;;;3.55;1.98;;;;;;;9.44;92.38;98925.22;5073766;28;20492;-37
2024/01/05 15:18:23;;;;;;;3.45;1.90;;;;;;;9.41;93.26;98924.81;5074085;28;20029;-37
2024/01/05 15:20:49;;;;;;;3.03;1.63;;;;;;;9.36;93.34;98921.91;5073946;28;20045;-38
2024/01/05 15:23:14;;;;;;;3.67;1.50;;;;;;;9.43;93.48;98918.25;5073938;28;20049;-36
2024/01/05 15:25:40;;;;;;;2.13;1.45;;;;;;;9.39;93.36;98921.50;5073731;28;20146;-36
2024/01/05 15:28:05;;;;;;;2.85;1.40;;;;;;;9.37;93.23;98919.06;5073714;28;20048;-37
2024/01/05 15:30:30;;;;;;;1.95;1.27;;;;;;;9.33;93.64;98922.31;5074092;28;20043;-37
2024/01/05 15:32:56;;;;;;;3.22;1.60;;;;;;;9.30;93.92;98925.34;5073700;28;20062;-37
2024/01/05 15:35:21;;;;;;;1.95;1.30;;;;;;;9.27;93.60;98918.59;5073263;28;20090;-38
2024/01/05 15:37:47;;;;;;;2.58;1.40;;;;;;;9.20;94.26;98915.91;5073102;28;20085;-38
2024/01/05 15:40:14;;;;;;;4.78;1.30;;;;;;;9.16;94.53;98914.66;5073483;28;20041;-38
2024/01/05 15:42:40;;;;;;;2.38;1.40;;;;;;;9.07;96.42;98918.50;5073098;28;20409;-38
2024/01/05 15:45:06;;;;;;;3.00;1.10;;;;;;;9.05;97.39;98920.50;5073642;28;20086;-39
2024/01/05 15:47:32;;;;;;;2.88;1.40;;;;;;;9.04;97.21;98926.03;5073026;28;20054;-36
2024/01/05 15:49:57;;;;;;;2.35;1.30;;;;;;;9.08;97.50;98930.75;5073031;28;20032;-37
2024/01/05 15:52:22;;;;;;;1.73;1.20;;;;;;;9.07;96.44;98928.31;5073106;28;20553;-37
2024/01/05 15:54:48;;;;;;;1.50;0.95;;;;;;;8.96;97.29;98933.13;5071686;28;20036;-36
2024/01/05 15:57:15;;;;;;;3.28;1.30;;;;;;;9.04;96.74;98934.00;5072706;28;20389;-35
2024/01/05 15:59:42;;;;;;;4.32;1.40;;;;;;;8.94;97.06;98939.66;5073031;28;20499;-39
2024/01/05 16:02:07;;;;;;;3.90;1.40;;;;;;;9.03;96.19;98929.72;5071538;28;20052;-35
2024/01/05 16:04:34;;;;;;;1.40;1.20;;;;;;;9.07;95.68;98941.59;5072660;28;20032;-35
2024/01/05 16:06:59;;;;;;;2.80;1.42;;;;;;;8.91;96.42;98937.38;5072025;28;20036;-38
2024/01/05 16:09:25;;;;;;;3.40;1.35;;;;;;;8.87;96.82;98944.13;5072800;28;20033;-35
2024/01/05 16:11:50;;;;;;;2.63;1.30;;;;;;;9.00;96.56;98940.69;5072727;28;20357;-41
2024/01/05 16:14:15;;;;;;;2.08;1.40;;;;;;;8.78;97.79;98942.59;5072638;28;20041;-36
2024/01/05 16:16:41;;;;;;;3.00;1.27;;;;;;;8.83;96.96;98941.00;5072446;28;20040;-37
2024/01/05 16:19:06;;;;;;;3.00;1.85;;;;;;;8.83;96.87;98942.84;5072549;28;20044;-38
2024/01/05 16:21:32;;;;;;;2.70;1.13;;;;;;;8.56;98.35;98942.66;5071155;28;20068;-36
2024/01/05 16:23:58;;;;;;;2.92;1.30;;;;;;;8.53;98.51;98936.88;5072594;28;20041;-37
2024/01/05 16:26:24;;;;;;;2.75;1.55;;;;;;;8.40;99.34;98937.59;5072006;28;20046;-35
2024/01/05 16:28:51;;;;;;;3.97;1.65;;;;;;;8.31;100.00;98934.22;5072374;28;20183;-35
2024/01/05 16:31:17;;;;;;;2.92;1.67;;;;;;;8.24;100.00;98945.81;5072223;28;20107;-35
2024/01/05 16:33:42;;;;;;;1.95;1.25;;;;;;;8.22;100.00;98955.78;5072306;28;20385;-39
2024/01/05 16:36:09;;;;;;;4.15;1.30;;;;;;;8.22;100.00;98951.31;5071907;28;20547;-37
2024/01/05 16:38:35;;;;;;;2.22;1.42;;;;;;;8.29;100.00;98946.88;5072093;28;20056;-39
2024/01/05 16:41:08;;;;;;;2.42;1.35;;;;;;;8.42;100.00;98949.69;5072137;28;20051;-36
2024/01/05 16:43:34;;;;;;;3.17;1.30;;;;;;;8.29;100.00;98961.97;5072228;28;20038;-39
2024/01/05 16:45:59;;;;;;;2.58;1.52;;;;;;;8.31;100.00;98957.28;5072013;28;20040;-37
2024/01/05 16:48:26;;;;;;;2.80;1.40;;;;;;;8.24;100.00;98956.41;5072162;28;20047;-36
2024/01/05 16:50:52;;;;;;;2.58;1.67;;;;;;;8.20;100.00;98961.25;5072138;28;20029;-35
2024/01/05 16:53:18;;;;;;;1.90;1.70;;;;;;;8.26;100.00;98952.53;5072065;28;20033;-38
2024/01/05 16:55:43;;;;;;;3.15;1.55;;;;;;;8.23;100.00;98960.09;5071311;28;20032;-35
2024/01/05 16:58:09;;;;;;;2.55;1.65;;;;;;;8.15;100.00;98956.53;5071223;28;20037;-39